Time;durP1;ratioP1;P1;durP2;ratioP2;P2;SDS_P1;SDS_P2;PMS_P1;PMS_P2;Temp;Humidity;BMP_temperature;BMP_pressure;BME280_temperature;BME280_humidity;BME280_pressure;Samples;Min_cycle;Max_cycle;Signal;HPM_P1;HPM_P2
2022/11/06 00:00:08;;;;;;;;;;;;;;;8.69;100.00;100596.22;3056873;19;19927;-50
2022/11/06 00:01:13;;;;;;;;;;;;;;;8.65;100.00;100600.84;3057093;19;19915;-46
2022/11/06 00:02:15;;;;;;;;;;;;;;;8.64;100.00;100600.91;3056701;19;19923;-50
2022/11/06 00:03:24;;;;;;;;;;;;;;;8.59;100.00;100600.28;3057370;19;19929;-50
2022/11/06 00:04:28;;;;;;;;;;;;;;;8.56;100.00;100605.78;3057008;19;19979;-51
2022/11/06 00:06:46;;;;;;;;;;;;;;;8.49;100.00;100612.34;3056670;19;19930;-48
2022/11/06 00:07:51;;;;;;;;;;;;;;;8.46;100.00;100616.00;3057101;19;19926;-50
2022/11/06 00:08:55;;;;;;;;;;;;;;;8.44;100.00;100619.72;3056812;19;19915;-46
2022/11/06 00:09:57;;;;;;;;;;;;;;;8.41;100.00;100617.19;3057064;19;19919;-49
2022/11/06 00:11:02;;;;;;;;;;;;;;;8.38;100.00;100612.03;3056793;19;19923;-50
2022/11/06 00:12:04;;;;;;;;;;;;;;;8.35;100.00;100612.16;3056949;19;19926;-50
2022/11/06 00:13:08;;;;;;;;;;;;;;;8.34;100.00;100610.44;3056589;19;19919;-49
2022/11/06 00:14:10;;;;;;;;;;;;;;;8.29;100.00;100616.84;3056707;19;20281;-46
2022/11/06 00:15:14;;;;;;;;;;;;;;;8.28;100.00;100611.59;3056311;19;19945;-51
2022/11/06 00:16:19;;;;;;;;;;;;;;;8.25;100.00;100607.28;3056665;19;19989;-51
2022/11/06 00:17:21;;;;;;;;;;;;;;;8.24;100.00;100610.03;3056565;19;19933;-49
2022/11/06 00:18:27;;;;;;;;;;;;;;;8.22;100.00;100611.91;3056671;19;19949;-49
2022/11/06 00:19:31;;;;;;;;;;;;;;;8.18;100.00;100605.03;3055820;19;19950;-48
2022/11/06 00:20:33;;;;;;;;;;;;;;;8.16;100.00;100604.25;3056116;19;20484;-46
2022/11/06 00:21:37;;;;;;;;;;;;;;;8.14;100.00;100608.75;3056199;19;19923;-48
2022/11/06 00:22:39;;;;;;;;;;;;;;;8.12;100.00;100615.94;3056887;19;19923;-50
2022/11/06 00:23:44;;;;;;;;;;;;;;;8.09;100.00;100611.63;3056143;19;19919;-48
2022/11/06 00:24:48;;;;;;;;;;;;;;;8.08;100.00;100609.94;3056791;19;19967;-49
2022/11/06 00:25:55;;;;;;;;;;;;;;;8.06;100.00;100616.28;3056194;19;19923;-46
2022/11/06 00:26:57;;;;;;;;;;;;;;;8.04;100.00;100613.69;3055475;19;20468;-48
2022/11/06 00:28:02;;;;;;;;;;;;;;;8.02;100.00;100610.22;3055622;19;19923;-47
2022/11/06 00:29:04;;;;;;;;;;;;;;;8.01;100.00;100613.81;3056483;19;20302;-45
2022/11/06 00:30:10;;;;;;;;;;;;;;;7.99;100.00;100617.47;3055564;19;19927;-48
2022/11/06 00:31:15;;;;;;;;;;;;;;;7.97;100.00;100622.03;3055826;19;19923;-47
2022/11/06 00:32:17;;;;;;;;;;;;;;;7.94;100.00;100623.91;3055630;19;19925;-49
2022/11/06 00:33:22;;;;;;;;;;;;;;;7.94;100.00;100628.34;3056304;19;19919;-47
2022/11/06 00:34:23;;;;;;;;;;;;;;;7.92;100.00;100624.91;3055298;19;19918;-48
2022/11/06 00:35:28;;;;;;;;;;;;;;;7.90;100.00;100626.78;3055893;19;20330;-48
2022/11/06 00:36:30;;;;;;;;;;;;;;;7.89;100.00;100630.38;3056451;19;19922;-46
2022/11/06 00:37:35;;;;;;;;;;;;;;;7.87;100.00;100629.56;3056313;19;20006;-50
2022/11/06 00:38:37;;;;;;;;;;;;;;;7.84;100.00;100625.28;3056730;19;19919;-51
2022/11/06 00:39:42;;;;;;;;;;;;;;;7.84;100.00;100627.94;3056124;19;19919;-49
2022/11/06 00:40:44;;;;;;;;;;;;;;;7.84;100.00;100635.06;3056759;19;19939;-46
2022/11/06 00:41:48;;;;;;;;;;;;;;;7.83;100.00;100636.00;3055747;19;19919;-49
2022/11/06 00:42:52;;;;;;;;;;;;;;;7.81;100.00;100638.72;3056562;19;19949;-47
2022/11/06 00:43:58;;;;;;;;;;;;;;;7.79;100.00;100639.72;3055979;19;19930;-49
2022/11/06 00:45:00;;;;;;;;;;;;;;;7.81;100.00;100640.50;3056789;19;19934;-49
2022/11/06 00:46:08;;;;;;;;;;;;;;;7.79;100.00;100645.88;3056086;19;20014;-47
2022/11/06 00:47:11;;;;;;;;;;;;;;;7.79;100.00;100645.03;3056288;19;19919;-50
2022/11/06 00:48:15;;;;;;;;;;;;;;;7.78;100.00;100643.31;3056046;19;19914;-50
2022/11/06 00:49:17;;;;;;;;;;;;;;;7.76;100.00;100639.84;3055463;19;20043;-47
2022/11/06 00:50:25;;;;;;;;;;;;;;;7.76;100.00;100653.13;3055169;19;19941;-50
2022/11/06 00:51:30;;;;;;;;;;;;;;;7.74;100.00;100649.69;3056247;19;20233;-49
2022/11/06 00:52:32;;;;;;;;;;;;;;;7.74;100.00;100652.34;3055519;19;19961;-48
2022/11/06 00:53:37;;;;;;;;;;;;;;;7.74;100.00;100644.38;3056093;19;19923;-50
2022/11/06 00:54:39;;;;;;;;;;;;;;;7.74;100.00;100647.88;3056344;19;20045;-48
2022/11/06 00:55:43;;;;;;;;;;;;;;;7.74;100.00;100647.88;3056135;19;20034;-46
2022/11/06 00:56:45;;;;;;;;;;;;;;;7.76;100.00;100645.16;3055649;19;20338;-46
2022/11/06 00:57:49;;;;;;;;;;;;;;;7.77;100.00;100646.88;3055762;19;20250;-47
2022/11/06 00:58:51;;;;;;;;;;;;;;;7.78;100.00;100648.63;3056074;19;20380;-48
2022/11/06 00:59:56;;;;;;;;;;;;;;;7.78;100.00;100649.47;3055686;19;19918;-50
2022/11/06 01:01:19;;;;;;;;;;;;;;;7.80;100.00;100652.06;3055805;19;19926;-49
2022/11/06 01:02:21;;;;;;;;;;;;;;;7.81;100.00;100653.78;3056248;19;19988;-47
2022/11/06 01:03:25;;;;;;;;;;;;;;;7.80;100.00;100652.94;3056039;19;20492;-48
2022/11/06 01:04:28;;;;;;;;;;;;;;;7.82;100.00;100650.19;3056267;19;19945;-46
2022/11/06 01:05:32;;;;;;;;;;;;;;;7.83;100.00;100643.97;3055828;19;19922;-48
2022/11/06 01:06:36;;;;;;;;;;;;;;;7.83;100.00;100646.63;3055894;19;19929;-47
2022/11/06 01:07:40;;;;;;;;;;;;;;;7.84;100.00;100638.56;3055954;19;19937;-47
2022/11/06 01:08:42;;;;;;;;;;;;;;;7.86;100.00;100641.13;3055504;19;19933;-48
2022/11/06 01:09:47;;;;;;;;;;;;;;;7.87;100.00;100645.50;3055882;19;20097;-46
2022/11/06 01:10:48;;;;;;;;;;;;;;;7.88;100.00;100639.25;3055917;19;19918;-48
2022/11/06 01:11:54;;;;;;;;;;;;;;;7.89;100.00;100646.31;3055807;19;20359;-49
2022/11/06 01:13:17;;;;;;;;;;;;;;;7.90;100.00;100650.69;3055854;19;20320;-47
2022/11/06 01:14:19;;;;;;;;;;;;;;;7.89;100.00;100646.31;3056031;19;20126;-49
2022/11/06 01:15:24;;;;;;;;;;;;;;;7.89;100.00;100651.63;3055591;19;20368;-49
2022/11/06 01:16:25;;;;;;;;;;;;;;;7.90;100.00;100648.03;3056246;19;19915;-49
2022/11/06 01:17:30;;;;;;;;;;;;;;;7.87;100.00;100649.03;3054280;19;20330;-49
2022/11/06 01:18:32;;;;;;;;;;;;;;;7.88;100.00;100648.09;3054922;19;20353;-50
2022/11/06 01:19:36;;;;;;;;;;;;;;;7.87;100.00;100642.84;3055748;19;19925;-47
2022/11/06 01:20:38;;;;;;;;;;;;;;;7.86;100.00;100646.44;3055675;19;19978;-49
2022/11/06 01:21:46;;;;;;;;;;;;;;;7.86;100.00;100646.44;3055394;19;19941;-48
2022/11/06 01:22:48;;;;;;;;;;;;;;;7.86;100.00;100649.09;3056349;19;19945;-47
2022/11/06 01:23:56;;;;;;;;;;;;;;;7.85;100.00;100652.69;3056901;19;19958;-47
2022/11/06 01:25:00;;;;;;;;;;;;;;;7.83;100.00;100658.09;3056218;19;20289;-48
2022/11/06 01:26:03;;;;;;;;;;;;;;;7.84;100.00;100658.97;3055592;19;20385;-49
2022/11/06 01:27:08;;;;;;;;;;;;;;;7.84;100.00;100659.84;3054501;19;20329;-47
2022/11/06 01:28:27;;;;;;;;;;;;;;;7.83;100.00;100657.25;3055340;19;19930;-51
2022/11/06 01:29:31;;;;;;;;;;;;;;;7.83;100.00;100662.56;3055430;19;19922;-48
2022/11/06 01:30:36;;;;;;;;;;;;;;;7.83;100.00;100665.22;3055822;19;19926;-49
2022/11/06 01:31:41;;;;;;;;;;;;;;;7.81;100.00;100653.78;3055234;19;20493;-48
2022/11/06 01:32:45;;;;;;;;;;;;;;;7.80;100.00;100660.03;3055466;19;19926;-52
2022/11/06 01:33:47;;;;;;;;;;;;;;;7.81;100.00;100653.78;3055852;19;19919;-49
2022/11/06 01:34:52;;;;;;;;;;;;;;;7.81;100.00;100659.09;3055717;19;20287;-46
2022/11/06 01:35:54;;;;;;;;;;;;;;;7.81;100.00;100656.44;3055750;19;19945;-50
2022/11/06 01:36:58;;;;;;;;;;;;;;;7.80;100.00;100657.38;3055451;19;20415;-51
2022/11/06 01:38:00;;;;;;;;;;;;;;;7.80;100.00;100652.06;3055717;19;19915;-49
2022/11/06 01:39:06;;;;;;;;;;;;;;;7.79;100.00;100660.97;3055644;19;19923;-48
2022/11/06 01:40:08;;;;;;;;;;;;;;;7.79;100.00;100664.50;3054729;19;19922;-49
2022/11/06 01:41:14;;;;;;;;;;;;;;;7.78;100.00;100661.91;3055070;19;19926;-49
2022/11/06 01:42:17;;;;;;;;;;;;;;;7.78;100.00;100659.25;3055520;19;20262;-46
2022/11/06 01:43:27;;;;;;;;;;;;;;;7.77;100.00;100662.84;3055476;19;19978;-50
2022/11/06 01:44:35;;;;;;;;;;;;;;;7.76;100.00;100661.09;3055705;19;19915;-47
2022/11/06 01:45:40;;;;;;;;;;;;;;;7.76;100.00;100655.78;3056525;19;19923;-47
2022/11/06 01:46:42;;;;;;;;;;;;;;;7.75;100.00;100654.06;3057802;19;19919;-50
2022/11/06 01:47:47;;;;;;;;;;;;;;;7.74;100.00;100657.66;3057817;19;20334;-48
2022/11/06 01:49:11;;;;;;;;;;;;;;;7.73;100.00;100650.66;3058715;19;20302;-46
2022/11/06 01:50:13;;;;;;;;;;;;;;;7.72;100.00;100654.22;3059131;19;19931;-49
2022/11/06 01:51:18;;;;;;;;;;;;;;;7.63;100.00;100644.88;3058558;19;19945;-49
2022/11/06 01:52:20;;;;;;;;;;;;;;;7.69;100.00;100649.06;3058712;19;20277;-50
2022/11/06 01:53:24;;;;;;;;;;;;;;;7.69;100.00;100649.06;3056281;19;19928;-46
2022/11/06 01:54:26;;;;;;;;;;;;;;;7.68;100.00;100656.16;3057809;19;20234;-48
2022/11/06 01:55:32;;;;;;;;;;;;;;;7.68;100.00;100652.66;3057287;19;19996;-49
2022/11/06 01:56:34;;;;;;;;;;;;;;;7.67;100.00;100650.91;3057585;19;19919;-47
2022/11/06 01:57:38;;;;;;;;;;;;;;;7.68;100.00;100657.97;3057537;19;19935;-46
2022/11/06 01:58:44;;;;;;;;;;;;;;;7.66;100.00;100650.06;3058794;19;19949;-46
2022/11/06 01:59:46;;;;;;;;;;;;;;;7.66;100.00;100654.50;3059058;19;19919;-46
2022/11/06 02:00:50;;;;;;;;;;;;;;;7.66;100.00;100654.50;3058070;19;19947;-47
2022/11/06 02:01:52;;;;;;;;;;;;;;;7.63;100.00;100655.50;3057977;19;19922;-47
2022/11/06 02:02:57;;;;;;;;;;;;;;;7.63;100.00;100659.94;3057807;19;19914;-49
2022/11/06 02:04:02;;;;;;;;;;;;;;;7.62;100.00;100658.22;3058907;19;19927;-48
2022/11/06 02:05:07;;;;;;;;;;;;;;;7.62;100.00;100659.09;3057325;19;20322;-49
2022/11/06 02:06:09;;;;;;;;;;;;;;;7.61;100.00;100668.00;3057910;19;20333;-46
2022/11/06 02:07:13;;;;;;;;;;;;;;;7.58;100.00;100663.72;3057227;19;19966;-49
2022/11/06 02:08:18;;;;;;;;;;;;;;;7.56;100.00;100662.91;3058013;19;20235;-48
2022/11/06 02:09:20;;;;;;;;;;;;;;;7.57;100.00;100661.97;3058386;19;20238;-48
2022/11/06 02:10:25;;;;;;;;;;;;;;;7.55;100.00;100663.84;3058328;19;20284;-47
2022/11/06 02:11:27;;;;;;;;;;;;;;;7.53;100.00;100664.84;3058532;19;19926;-49
2022/11/06 02:12:49;;;;;;;;;;;;;;;7.53;100.00;100662.19;3056929;19;19922;-47
2022/11/06 02:13:53;;;;;;;;;;;;;;;7.51;100.00;100670.22;3057182;19;20014;-47
2022/11/06 02:15:10;;;;;;;;;;;;;;;7.50;100.00;100670.28;3058597;19;19919;-50
2022/11/06 02:16:14;;;;;;;;;;;;;;;7.48;100.00;100678.34;3058258;19;20334;-48
2022/11/06 02:17:19;;;;;;;;;;;;;;;7.45;100.00;100662.53;3058470;19;19919;-47
2022/11/06 02:18:33;;;;;;;;;;;;;;;7.44;100.00;100666.13;3057214;19;19924;-50
2022/11/06 02:19:44;;;;;;;;;;;;;;;7.43;100.00;100675.03;3057667;19;19926;-47
2022/11/06 02:21:07;;;;;;;;;;;;;;;7.40;100.00;100675.16;3058499;19;19995;-46
2022/11/06 02:22:17;;;;;;;;;;;;;;;7.37;100.00;100683.25;3058148;19;19914;-50
2022/11/06 02:23:40;;;;;;;;;;;;;;;7.35;100.00;100677.19;3057483;19;19922;-47
2022/11/06 02:24:42;;;;;;;;;;;;;;;7.31;100.00;100682.69;3057860;19;19944;-50
2022/11/06 02:26:00;;;;;;;;;;;;;;;7.28;100.00;100677.50;3058329;19;19919;-46
2022/11/06 02:27:02;;;;;;;;;;;;;;;7.25;100.00;100675.84;3057251;19;19918;-48
2022/11/06 02:28:11;;;;;;;;;;;;;;;7.22;100.00;100681.31;3057078;19;19926;-47
2022/11/06 02:29:14;;;;;;;;;;;;;;;7.19;100.00;100682.31;3057560;19;20040;-50
2022/11/06 02:30:19;;;;;;;;;;;;;;;7.18;100.00;100692.97;3057180;19;20556;-50
2022/11/06 02:31:23;;;;;;;;;;;;;;;7.15;100.00;100687.81;3057227;19;19920;-48
2022/11/06 02:32:32;;;;;;;;;;;;;;;7.12;100.00;100701.22;3056847;19;19915;-48
2022/11/06 02:33:35;;;;;;;;;;;;;;;7.09;100.00;100698.72;3057057;19;19918;-49
2022/11/06 02:34:40;;;;;;;;;;;;;;;7.06;100.00;100699.69;3057079;19;19922;-46
2022/11/06 02:36:04;;;;;;;;;;;;;;;6.97;100.00;100697.44;3057412;19;20300;-49
2022/11/06 02:37:11;;;;;;;;;;;;;;;7.03;100.00;100714.88;3057604;19;19947;-47
2022/11/06 02:38:17;;;;;;;;;;;;;;;7.02;100.00;100710.50;3057711;19;20298;-47
2022/11/06 02:39:19;;;;;;;;;;;;;;;7.01;100.00;100716.72;3057291;19;19922;-47
2022/11/06 02:40:25;;;;;;;;;;;;;;;7.00;100.00;100717.69;3057201;19;19919;-47
2022/11/06 02:41:36;;;;;;;;;;;;;;;6.98;100.00;100712.44;3058094;19;19922;-48
2022/11/06 02:42:42;;;;;;;;;;;;;;;6.99;100.00;100715.97;3057178;19;19999;-50
2022/11/06 02:43:45;;;;;;;;;;;;;;;6.98;100.00;100715.09;3057230;19;19929;-49
2022/11/06 02:44:50;;;;;;;;;;;;;;;7.00;100.00;100717.69;3056832;19;19923;-50
2022/11/06 02:45:53;;;;;;;;;;;;;;;6.99;100.00;100710.66;3057344;19;19923;-50
2022/11/06 02:46:59;;;;;;;;;;;;;;;6.99;100.00;100715.97;3056707;19;19991;-49
2022/11/06 02:48:01;;;;;;;;;;;;;;;6.98;100.00;100708.94;3057167;19;20050;-46
2022/11/06 02:49:09;;;;;;;;;;;;;;;6.99;100.00;100710.66;3057128;19;19930;-48
2022/11/06 02:50:12;;;;;;;;;;;;;;;6.97;100.00;100699.25;3057055;19;20034;-49
2022/11/06 02:51:17;;;;;;;;;;;;;;;6.97;100.00;100712.50;3056812;19;19945;-48
2022/11/06 02:52:22;;;;;;;;;;;;;;;6.96;100.00;100710.78;3057047;19;19949;-48
2022/11/06 02:53:27;;;;;;;;;;;;;;;6.96;100.00;100713.44;3056771;19;19929;-51
2022/11/06 02:54:30;;;;;;;;;;;;;;;6.95;100.00;100706.41;3057165;19;19919;-49
2022/11/06 02:55:34;;;;;;;;;;;;;;;6.90;100.00;100705.72;3056784;19;20738;-49
2022/11/06 02:56:36;;;;;;;;;;;;;;;6.92;100.00;100703.88;3056633;19;19935;-47
2022/11/06 02:57:42;;;;;;;;;;;;;;;6.91;100.00;100712.75;3056125;19;19919;-47
2022/11/06 02:58:45;;;;;;;;;;;;;;;6.88;100.00;100709.28;3057145;19;19934;-50
2022/11/06 02:59:52;;;;;;;;;;;;;;;6.87;100.00;100706.75;3056885;19;20345;-47
2022/11/06 03:00:57;;;;;;;;;;;;;;;6.85;100.00;100714.75;3058123;19;19923;-49
2022/11/06 03:02:05;;;;;;;;;;;;;;;6.84;100.00;100706.88;3057193;19;19919;-47
2022/11/06 03:03:20;;;;;;;;;;;;;;;6.83;100.00;100711.31;3057825;19;19966;-50
2022/11/06 03:04:29;;;;;;;;;;;;;;;6.82;100.00;100708.72;3057957;19;20810;-47
2022/11/06 03:05:42;;;;;;;;;;;;;;;6.82;100.00;100714.88;3056866;19;19922;-50
2022/11/06 03:06:48;;;;;;;;;;;;;;;6.81;100.00;100707.84;3057085;19;19922;-50
2022/11/06 03:08:28;;;;;;;;;;;;;;;6.82;100.00;100714.88;3057566;19;20332;-49
2022/11/06 03:09:31;;;;;;;;;;;;;;;6.86;100.00;100712.97;3056097;19;19919;-48
2022/11/06 03:10:37;;;;;;;;;;;;;;;6.86;100.00;100708.53;3056089;19;19939;-47
2022/11/06 03:11:38;;;;;;;;;;;;;;;6.88;100.00;100711.13;3056242;19;19990;-49
2022/11/06 03:12:56;;;;;;;;;;;;;;;6.90;100.00;100713.69;3056928;19;19966;-49
2022/11/06 03:13:57;;;;;;;;;;;;;;;6.91;100.00;100707.44;3057156;19;20435;-48
2022/11/06 03:15:05;;;;;;;;;;;;;;;6.91;100.00;100713.63;3057775;19;19926;-47
2022/11/06 03:16:10;;;;;;;;;;;;;;;6.91;100.00;100697.69;3056600;19;19930;-46
2022/11/06 03:17:25;;;;;;;;;;;;;;;6.90;100.00;100705.72;3057019;19;20623;-47
2022/11/06 03:18:29;;;;;;;;;;;;;;;6.90;100.00;100705.72;3057414;19;19915;-50
2022/11/06 03:19:37;;;;;;;;;;;;;;;6.90;100.00;100708.38;3056799;19;19923;-48
2022/11/06 03:20:44;;;;;;;;;;;;;;;6.88;100.00;100711.13;3056378;19;19919;-48
2022/11/06 03:22:05;;;;;;;;;;;;;;;6.85;100.00;100709.44;3057499;19;19938;-47
2022/11/06 03:23:17;;;;;;;;;;;;;;;6.85;100.00;100708.59;3057579;19;19915;-49
2022/11/06 03:24:21;;;;;;;;;;;;;;;6.80;100.00;100706.13;3056513;19;19938;-49
2022/11/06 03:25:37;;;;;;;;;;;;;;;6.76;100.00;100699.22;3056568;19;19927;-48
2022/11/06 03:26:40;;;;;;;;;;;;;;;6.73;100.00;100701.16;3055797;19;19919;-49
2022/11/06 03:27:51;;;;;;;;;;;;;;;6.68;100.00;100706.63;3056575;19;19986;-46
2022/11/06 03:28:54;;;;;;;;;;;;;;;6.64;100.00;100704.19;3056548;19;20349;-48
2022/11/06 03:30:02;;;;;;;;;;;;;;;6.52;100.00;100694.09;3056863;19;19991;-49
2022/11/06 03:31:08;;;;;;;;;;;;;;;6.55;100.00;100705.41;3056309;19;20030;-49
2022/11/06 03:32:30;;;;;;;;;;;;;;;6.50;100.00;100707.41;3056493;19;20620;-48
2022/11/06 03:33:39;;;;;;;;;;;;;;;6.44;100.00;100710.31;3056647;19;19914;-48
2022/11/06 03:34:46;;;;;;;;;;;;;;;6.39;100.00;100714.94;3055840;19;19933;-48
2022/11/06 03:35:51;;;;;;;;;;;;;;;6.35;100.00;100713.34;3056553;19;20038;-50
2022/11/06 03:36:59;;;;;;;;;;;;;;;6.33;100.00;100720.50;3056138;19;19944;-49
2022/11/06 03:38:04;;;;;;;;;;;;;;;6.30;100.00;100720.59;3056601;19;19958;-47
2022/11/06 03:39:09;;;;;;;;;;;;;;;6.26;100.00;100724.31;3056278;19;19959;-49
2022/11/06 03:40:13;;;;;;;;;;;;;;;6.24;100.00;100723.50;3057165;19;19918;-50
2022/11/06 03:41:23;;;;;;;;;;;;;;;6.22;100.00;100718.28;3056038;19;19931;-48
2022/11/06 03:42:26;;;;;;;;;;;;;;;6.20;100.00;100719.25;3056469;19;20076;-46
2022/11/06 03:43:31;;;;;;;;;;;;;;;6.16;100.00;100715.84;3057012;19;19941;-49
2022/11/06 03:44:34;;;;;;;;;;;;;;;6.13;100.00;100730.09;3057427;19;19922;-46
2022/11/06 03:45:39;;;;;;;;;;;;;;;6.12;100.00;100727.50;3056187;19;20269;-47
2022/11/06 03:46:42;;;;;;;;;;;;;;;6.10;100.00;100729.34;3056262;19;19922;-49
2022/11/06 03:47:48;;;;;;;;;;;;;;;6.06;100.00;100733.91;3055847;19;19941;-48
2022/11/06 03:48:51;;;;;;;;;;;;;;;6.04;100.00;100735.75;3056491;19;20464;-48
2022/11/06 03:49:58;;;;;;;;;;;;;;;6.04;100.00;100733.09;3056110;19;19915;-49
2022/11/06 03:51:02;;;;;;;;;;;;;;;6.02;100.00;100732.31;3056733;19;19922;-46
2022/11/06 03:52:13;;;;;;;;;;;;;;;6.01;100.00;100733.25;3055636;19;19927;-48
2022/11/06 03:53:34;;;;;;;;;;;;;;;6.01;100.00;100740.31;3056317;19;19919;-49
2022/11/06 03:54:43;;;;;;;;;;;;;;;5.98;100.00;100736.00;3056455;19;19930;-47
2022/11/06 03:55:46;;;;;;;;;;;;;;;5.97;100.00;100742.22;3057165;19;19922;-47
2022/11/06 03:57:02;;;;;;;;;;;;;;;5.96;100.00;100736.97;3056315;19;20341;-51
2022/11/06 03:58:07;;;;;;;;;;;;;;;5.93;100.00;100743.25;3056145;19;19922;-49
2022/11/06 03:59:09;;;;;;;;;;;;;;;5.91;100.00;100736.31;3056534;19;19932;-50
2022/11/06 04:00:15;;;;;;;;;;;;;;;5.89;100.00;100741.66;3056743;19;20366;-47
2022/11/06 04:01:18;;;;;;;;;;;;;;;5.86;100.00;100741.72;3056553;19;20325;-47
2022/11/06 04:02:23;;;;;;;;;;;;;;;5.83;100.00;100736.53;3055895;19;19982;-49
2022/11/06 04:03:26;;;;;;;;;;;;;;;5.80;100.00;100741.94;3056210;19;19919;-48
2022/11/06 04:04:32;;;;;;;;;;;;;;;5.79;100.00;100745.53;3055573;19;20555;-48
2022/11/06 04:05:44;;;;;;;;;;;;;;;5.75;100.00;100741.28;3056367;19;19923;-47
2022/11/06 04:06:50;;;;;;;;;;;;;;;5.74;100.00;100742.19;3055791;19;19938;-49
2022/11/06 04:14:43;;;;;;;;;;;;;;;5.69;100.00;100744.13;3054633;19;19915;-49
2022/11/06 04:15:49;;;;;;;;;;;;;;;5.68;100.00;100743.28;3055591;19;20361;-50
2022/11/06 04:16:56;;;;;;;;;;;;;;;5.70;100.00;100737.94;3056268;19;20352;-46
2022/11/06 04:17:58;;;;;;;;;;;;;;;5.71;100.00;100747.59;3055949;19;19926;-47
2022/11/06 04:19:03;;;;;;;;;;;;;;;5.72;100.00;100738.75;3055622;19;19990;-47
2022/11/06 04:20:06;;;;;;;;;;;;;;;5.73;100.00;100740.47;3056891;19;19926;-46
2022/11/06 04:21:26;;;;;;;;;;;;;;;5.75;100.00;100743.94;3055439;19;20919;-49
2022/11/06 04:22:35;;;;;;;;;;;;;;;5.78;100.00;100749.13;3055642;19;19919;-47
2022/11/06 04:23:44;;;;;;;;;;;;;;;5.78;100.00;100743.81;3055741;19;19922;-51
2022/11/06 04:27:52;;;;;;;;;;;;;;;5.81;100.00;100735.72;3055471;19;20691;-47
2022/11/06 04:29:13;;;;;;;;;;;;;;;5.84;100.00;100738.28;3055585;19;19922;-48
2022/11/06 04:30:17;;;;;;;;;;;;;;;5.86;100.00;100731.13;3056071;19;19927;-49
2022/11/06 04:31:19;;;;;;;;;;;;;;;5.89;100.00;100732.84;3055644;19;19927;-46
2022/11/06 04:32:26;;;;;;;;;;;;;;;5.89;100.00;100731.06;3055714;19;20059;-51
2022/11/06 04:33:31;;;;;;;;;;;;;;;5.91;100.00;100733.66;3055565;19;20288;-48
2022/11/06 04:35:08;;;;;;;;;;;;;;;5.94;100.00;100723.78;3056041;19;19927;-46
2022/11/06 04:36:16;;;;;;;;;;;;;;;5.97;100.00;100722.81;3055037;19;19923;-46
2022/11/06 04:37:24;;;;;;;;;;;;;;;5.99;100.00;100720.97;3056069;19;19918;-49
2022/11/06 04:38:32;;;;;;;;;;;;;;;6.02;100.00;100721.72;3055987;19;19998;-51
2022/11/06 04:39:49;;;;;;;;;;;;;;;6.03;100.00;100718.16;3055874;19;19922;-48
2022/11/06 04:40:52;;;;;;;;;;;;;;;6.08;100.00;100723.25;3055949;19;19918;-48
2022/11/06 04:42:02;;;;;;;;;;;;;;;6.10;100.00;100724.06;3055241;19;19954;-50
2022/11/06 04:43:05;;;;;;;;;;;;;;;6.13;100.00;100722.16;3055539;19;20650;-47
2022/11/06 04:44:17;;;;;;;;;;;;;;;6.16;100.00;100722.97;3055389;19;19919;-44
2022/11/06 04:45:21;;;;;;;;;;;;;;;6.20;100.00;100724.56;3055620;19;19941;-45
2022/11/06 04:46:27;;;;;;;;;;;;;;;6.21;100.00;100721.84;3055583;19;20385;-44
2022/11/06 04:47:29;;;;;;;;;;;;;;;6.24;100.00;100718.22;3056217;19;19923;-47
2022/11/06 04:48:33;;;;;;;;;;;;;;;6.26;100.00;100717.22;3055480;19;20306;-49
2022/11/06 04:49:36;;;;;;;;;;;;;;;6.28;100.00;100717.19;3055491;19;19953;-46
2022/11/06 04:50:42;;;;;;;;;;;;;;;6.27;100.00;100721.63;3056283;19;19919;-49
2022/11/06 04:51:45;;;;;;;;;;;;;;;6.29;100.00;100722.38;3056183;19;20237;-47
2022/11/06 04:52:51;;;;;;;;;;;;;;;6.28;100.00;100723.31;3055164;19;20395;-45
2022/11/06 04:53:52;;;;;;;;;;;;;;;6.28;100.00;100725.97;3055143;19;19941;-49
2022/11/06 04:54:57;;;;;;;;;;;;;;;6.27;100.00;100728.69;3055423;19;20255;-47
2022/11/06 04:56:00;;;;;;;;;;;;;;;6.26;100.00;100729.63;3055134;19;19923;-48
2022/11/06 04:57:04;;;;;;;;;;;;;;;6.25;100.00;100723.47;3056017;19;19923;-46
2022/11/06 04:58:07;;;;;;;;;;;;;;;6.23;100.00;100735.03;3055970;19;20259;-48
2022/11/06 04:59:12;;;;;;;;;;;;;;;6.22;100.00;100730.66;3055734;19;20006;-48
2022/11/06 05:00:17;;;;;;;;;;;;;;;6.23;100.00;100729.75;3055289;19;19934;-48
2022/11/06 05:01:18;;;;;;;;;;;;;;;6.20;100.00;100735.16;3055164;19;19923;-48
2022/11/06 05:02:23;;;;;;;;;;;;;;;6.19;100.00;100733.41;3055062;19;20002;-49
2022/11/06 05:03:25;;;;;;;;;;;;;;;6.18;100.00;100731.69;3056491;19;19934;-47
2022/11/06 05:04:29;;;;;;;;;;;;;;;6.17;100.00;100735.25;3055843;19;19941;-47
2022/11/06 05:05:33;;;;;;;;;;;;;;;6.14;100.00;100731.84;3056089;19;20430;-46
2022/11/06 05:06:37;;;;;;;;;;;;;;;6.13;100.00;100735.41;3055963;19;19919;-48
2022/11/06 05:07:39;;;;;;;;;;;;;;;6.11;100.00;100724.00;3056328;19;19936;-46
2022/11/06 05:08:43;;;;;;;;;;;;;;;6.11;100.00;100729.31;3054877;19;19926;-48
2022/11/06 05:09:45;;;;;;;;;;;;;;;6.10;100.00;100735.53;3056367;19;19919;-50
2022/11/06 05:10:50;;;;;;;;;;;;;;;6.09;100.00;100727.63;3055792;19;19945;-49
2022/11/06 05:11:51;;;;;;;;;;;;;;;6.07;100.00;100727.69;3056196;19;19919;-47
2022/11/06 05:12:56;;;;;;;;;;;;;;;6.06;100.00;100738.34;3055859;19;19914;-47
2022/11/06 05:13:58;;;;;;;;;;;;;;;6.06;100.00;100741.84;3056234;19;19923;-50
2022/11/06 05:15:02;;;;;;;;;;;;;;;6.04;100.00;100734.88;3055944;19;19941;-47
2022/11/06 05:16:04;;;;;;;;;;;;;;;6.03;100.00;100734.03;3055740;19;19930;-46
2022/11/06 05:17:09;;;;;;;;;;;;;;;6.03;100.00;100733.19;3055635;19;19923;-49
2022/11/06 05:18:10;;;;;;;;;;;;;;;6.03;100.00;100734.03;3056234;19;20337;-47
2022/11/06 05:19:15;;;;;;;;;;;;;;;6.03;100.00;100736.69;3056012;19;19929;-49
2022/11/06 05:20:17;;;;;;;;;;;;;;;6.04;100.00;100734.88;3055945;19;20348;-47
2022/11/06 05:23:59;;;;;;;;;;;;;;;6.11;100.00;100731.09;3056175;19;19923;-49
2022/11/06 05:25:01;;;;;;;;;;;;;;;6.14;100.00;100737.13;3055910;19;19919;-49
2022/11/06 05:26:07;;;;;;;;;;;;;;;6.18;100.00;100742.28;3055978;19;20042;-46
2022/11/06 05:27:09;;;;;;;;;;;;;;;6.20;100.00;100741.31;3055742;19;19942;-47
2022/11/06 05:28:13;;;;;;;;;;;;;;;6.23;100.00;100743.00;3055831;19;19999;-49
2022/11/06 05:29:15;;;;;;;;;;;;;;;6.23;100.00;100741.19;3054977;19;19938;-45
2022/11/06 05:30:20;;;;;;;;;;;;;;;6.25;100.00;100746.44;3055207;19;19942;-47
2022/11/06 05:31:22;;;;;;;;;;;;;;;6.20;100.00;100737.81;3056000;19;19915;-46
2022/11/06 05:32:26;;;;;;;;;;;;;;;6.21;100.00;100731.56;3055802;19;19918;-49
2022/11/06 05:33:31;;;;;;;;;;;;;;;6.21;100.00;100742.19;3055557;19;19915;-46
2022/11/06 05:34:36;;;;;;;;;;;;;;;6.20;100.00;100740.44;3055971;19;19923;-49
2022/11/06 05:35:38;;;;;;;;;;;;;;;6.20;100.00;100735.16;3055655;19;19922;-47
2022/11/06 05:36:42;;;;;;;;;;;;;;;6.18;100.00;100739.63;3055823;19;19936;-48
2022/11/06 05:37:44;;;;;;;;;;;;;;;6.21;100.00;100742.19;3055445;19;19938;-47
2022/11/06 05:38:48;;;;;;;;;;;;;;;6.20;100.00;100741.31;3056795;19;19922;-47
2022/11/06 05:39:50;;;;;;;;;;;;;;;6.23;100.00;100743.84;3055619;19;19945;-47
2022/11/06 05:40:54;;;;;;;;;;;;;;;6.22;100.00;100741.25;3055903;19;19923;-47
2022/11/06 05:41:56;;;;;;;;;;;;;;;6.21;100.00;100742.19;3055459;19;19941;-47
2022/11/06 05:43:01;;;;;;;;;;;;;;;6.20;100.00;100743.09;3055908;19;19919;-47
2022/11/06 05:44:03;;;;;;;;;;;;;;;6.16;100.00;100747.66;3054599;19;19939;-48
2022/11/06 05:45:08;;;;;;;;;;;;;;;6.16;100.00;100745.00;3054706;19;19930;-48
2022/11/06 05:46:12;;;;;;;;;;;;;;;6.12;100.00;100754.88;3054687;19;19922;-48
2022/11/06 05:47:36;;;;;;;;;;;;;;;6.12;100.00;100749.56;3055209;19;19933;-46
2022/11/06 05:48:38;;;;;;;;;;;;;;;6.12;100.00;100757.53;3055669;19;19915;-47
2022/11/06 05:49:43;;;;;;;;;;;;;;;6.14;100.00;100760.97;3055932;19;19939;-46
2022/11/06 05:50:44;;;;;;;;;;;;;;;6.17;100.00;100759.09;3055505;19;20012;-50